Terminal Aerodrome Forecast
Issued by NWS Paducah, KY

Home | Current Version | Previous Version | Graphics & Text | Print | Product List | Glossary On
Versions: 1 2 3 4 5 6 7 8 9 10 11 12 13 14 15 16 17 18 19 20 21 22 23
000
FTUS43 KPAH 271000 AAB
TAFEVV
TAF AMD
KEVV 271016Z 2710/2806 VRB03KT 4SM BR BKN004 OVC025
     FM271200 VRB02KT 4SM BR OVC015
     FM271500 36006KT P6SM BKN020
     FM280200 03005KT P6SM BKN030=

USA.gov is the U.S. government's official web portal to all federal, state and local government web resources and services.